createdAt,value
2022-09-24T00:01:34.904Z,12.81
2022-09-24T00:04:04.894Z,12.81
2022-09-24T00:06:36.109Z,12.80
2022-09-24T00:09:02.825Z,12.81
2022-09-24T00:11:29.771Z,12.82
2022-09-24T00:13:58.041Z,12.80
2022-09-24T00:16:27.084Z,12.85
2022-09-24T00:18:54.729Z,12.83
2022-09-24T00:21:29.956Z,12.84
2022-09-24T00:23:58.980Z,12.86
2022-09-24T00:26:45.015Z,12.87
2022-09-24T00:29:14.552Z,12.89
2022-09-24T00:31:41.562Z,12.87
2022-09-24T00:34:08.509Z,12.91
2022-09-24T00:36:35.383Z,12.91
2022-09-24T00:39:01.962Z,12.94
2022-09-24T00:41:33.653Z,12.93
2022-09-24T00:44:00.829Z,12.96
2022-09-24T00:46:42.519Z,12.95
2022-09-24T00:49:18.039Z,12.95
2022-09-24T00:51:48.905Z,12.98
2022-09-24T00:54:25.357Z,12.98
2022-09-24T00:56:53.080Z,12.99
2022-09-24T00:59:23.827Z,13.02
2022-09-24T01:01:53.901Z,13.02
2022-09-24T01:04:21.738Z,13.02
2022-09-24T01:06:49.774Z,13.02
2022-09-24T01:09:18.293Z,12.98
2022-09-24T01:11:56.488Z,12.99
2022-09-24T01:15:07.427Z,13.02
2022-09-24T01:17:50.530Z,12.99
2022-09-24T01:20:51.693Z,13.00
2022-09-24T01:23:36.741Z,13.01
2022-09-24T01:26:44.443Z,12.98
2022-09-24T01:29:43.520Z,13.01
2022-09-24T01:32:26.747Z,13.01
2022-09-24T01:35:09.769Z,13.01
2022-09-24T01:37:39.360Z,13.03
2022-09-24T01:40:08.425Z,13.05
2022-09-24T01:42:38.313Z,13.04
2022-09-24T01:45:05.509Z,13.07
2022-09-24T01:47:39.830Z,13.05
2022-09-24T01:50:12.942Z,13.08
2022-09-24T01:52:56.090Z,13.07
2022-09-24T01:55:27.297Z,13.09
2022-09-24T01:58:02.068Z,13.10
2022-09-24T02:00:28.903Z,13.09
2022-09-24T02:03:08.897Z,13.08
2022-09-24T02:06:08.854Z,13.10
2022-09-24T02:08:45.810Z,13.11
2022-09-24T02:11:21.746Z,13.09
2022-09-24T02:13:54.884Z,13.10
2022-09-24T02:16:26.655Z,13.09
2022-09-24T02:18:56.964Z,13.09
2022-09-24T02:21:25.947Z,13.07
2022-09-24T02:24:05.253Z,13.10
2022-09-24T02:26:33.777Z,13.10
2022-09-24T02:29:01.119Z,13.05
2022-09-24T02:31:35.264Z,13.08
2022-09-24T02:34:24.777Z,13.04
2022-09-24T02:37:07.239Z,13.04
2022-09-24T02:39:34.020Z,13.06
2022-09-24T02:42:01.034Z,13.06
2022-09-24T02:44:27.567Z,13.03
2022-09-24T02:46:54.166Z,13.01
2022-09-24T02:49:20.704Z,12.99
2022-09-24T02:51:47.278Z,12.99
2022-09-24T02:54:14.073Z,12.96
2022-09-24T02:56:40.998Z,12.95
2022-09-24T02:59:07.725Z,12.95
2022-09-24T03:01:34.832Z,12.90
2022-09-24T03:04:02.339Z,12.88
2022-09-24T03:06:28.940Z,12.89
2022-09-24T03:08:55.464Z,12.90
2022-09-24T03:11:22.687Z,12.85
2022-09-24T03:13:50.078Z,12.84
2022-09-24T03:16:17.774Z,12.82
2022-09-24T03:18:45.989Z,12.84
2022-09-24T03:21:14.353Z,12.85
2022-09-24T03:23:41.785Z,12.87
2022-09-24T03:26:08.900Z,12.84
2022-09-24T03:28:35.725Z,12.82
2022-09-24T03:31:02.729Z,12.77
2022-09-24T03:33:36.189Z,12.75
2022-09-24T03:36:06.859Z,12.75
2022-09-24T03:38:34.606Z,12.76
2022-09-24T03:41:01.983Z,12.75
2022-09-24T03:43:29.298Z,12.80
2022-09-24T03:45:55.914Z,12.79
2022-09-24T03:48:23.750Z,12.80
2022-09-24T03:50:50.870Z,12.84
2022-09-24T03:53:18.035Z,12.86
2022-09-24T03:55:49.600Z,12.92
2022-09-24T03:58:16.420Z,12.94
2022-09-24T04:00:42.941Z,12.97
2022-09-24T04:03:10.202Z,13.00
2022-09-24T04:05:36.818Z,12.99
2022-09-24T04:08:05.088Z,13.00
2022-09-24T04:10:31.807Z,12.97
2022-09-24T04:12:58.582Z,12.98
2022-09-24T04:15:25.429Z,12.98
2022-09-24T04:18:00.181Z,12.95
2022-09-24T04:20:29.341Z,12.95
2022-09-24T04:22:57.825Z,12.98
2022-09-24T04:25:26.659Z,13.02
2022-09-24T04:27:55.219Z,13.04
2022-09-24T04:30:22.140Z,13.08
2022-09-24T04:32:49.107Z,13.13
2022-09-24T04:35:15.655Z,13.17
2022-09-24T04:37:42.752Z,13.20
2022-09-24T04:40:12.623Z,13.19
2022-09-24T04:42:40.293Z,13.23
2022-09-24T04:45:08.278Z,13.24
2022-09-24T04:47:35.417Z,13.30
2022-09-24T04:50:02.758Z,13.34
2022-09-24T04:52:31.459Z,13.37
2022-09-24T04:54:59.063Z,13.39
2022-09-24T04:57:26.850Z,13.37
2022-09-24T04:59:53.594Z,13.34
2022-09-24T05:02:20.287Z,13.30
2022-09-24T05:04:47.268Z,13.25
2022-09-24T05:07:13.802Z,13.20
2022-09-24T05:09:40.278Z,13.10
2022-09-24T05:12:06.885Z,13.09
2022-09-24T05:14:33.327Z,13.03
2022-09-24T05:16:59.767Z,12.95
2022-09-24T05:19:26.226Z,12.83
2022-09-24T05:21:52.967Z,12.72
2022-09-24T05:24:19.510Z,12.64
2022-09-24T05:27:04.408Z,12.47
2022-09-24T05:29:30.931Z,12.40
2022-09-24T05:31:57.413Z,12.35
2022-09-24T05:34:23.956Z,12.27
2022-09-24T05:36:50.486Z,12.15
2022-09-24T05:39:16.938Z,12.11
2022-09-24T05:41:43.817Z,12.07
2022-09-24T05:44:11.285Z,12.04
2022-09-24T05:46:38.282Z,12.03
2022-09-24T05:49:04.921Z,12.03
2022-09-24T05:51:31.478Z,12.09
2022-09-24T05:53:58.021Z,12.16
2022-09-24T05:56:24.481Z,12.27
2022-09-24T05:58:51.085Z,12.35
2022-09-24T06:01:17.592Z,12.46
2022-09-24T06:03:44.048Z,12.59
2022-09-24T06:06:10.602Z,12.67
2022-09-24T06:08:37.207Z,12.74
2022-09-24T06:11:06.596Z,12.82
2022-09-24T06:13:35.022Z,12.89
2022-09-24T06:16:07.488Z,12.96
2022-09-24T06:18:35.255Z,13.02
2022-09-24T06:21:07.884Z,13.10
2022-09-24T06:23:35.391Z,13.14
2022-09-24T06:26:02.646Z,13.21
2022-09-24T06:28:29.600Z,13.27
2022-09-24T06:30:56.167Z,13.31
2022-09-24T06:33:23.425Z,13.33
2022-09-24T06:35:49.912Z,13.35
2022-09-24T06:38:18.639Z,13.36
2022-09-24T06:40:48.379Z,13.37
2022-09-24T06:43:15.246Z,13.41
2022-09-24T06:45:45.058Z,13.41
2022-09-24T06:48:13.384Z,13.45
2022-09-24T06:50:45.462Z,13.55
2022-09-24T06:53:12.641Z,13.61
2022-09-24T06:55:39.351Z,13.68
2022-09-24T06:58:17.269Z,13.80
2022-09-24T07:00:51.188Z,13.85
2022-09-24T07:03:17.738Z,13.90
2022-09-24T07:05:44.288Z,13.93
2022-09-24T07:08:10.918Z,13.97
2022-09-24T07:10:39.065Z,14.00
2022-09-24T07:13:05.571Z,14.05
2022-09-24T07:15:32.090Z,14.07
2022-09-24T07:17:58.620Z,14.14
2022-09-24T07:20:28.564Z,14.16
2022-09-24T07:22:56.039Z,14.16
2022-09-24T07:25:22.942Z,14.17
2022-09-24T07:27:49.446Z,14.20
2022-09-24T07:30:16.137Z,14.26
2022-09-24T07:32:43.087Z,14.26
2022-09-24T07:35:10.116Z,14.31
2022-09-24T07:37:36.623Z,14.32
2022-09-24T07:40:03.211Z,14.39
2022-09-24T07:42:29.931Z,14.40
2022-09-24T07:45:00.904Z,14.45
2022-09-24T07:47:27.380Z,14.44
2022-09-24T07:49:53.870Z,14.41
2022-09-24T07:52:20.401Z,14.37
2022-09-24T07:54:46.865Z,14.31
2022-09-24T07:57:13.681Z,14.31
2022-09-24T07:59:41.325Z,14.33
2022-09-24T08:02:19.001Z,14.27
2022-09-24T08:04:46.272Z,14.31
2022-09-24T08:07:13.583Z,14.28
2022-09-24T08:09:40.345Z,14.21
2022-09-24T08:12:07.579Z,14.14
2022-09-24T08:14:34.091Z,14.26
2022-09-24T08:17:02.808Z,14.34
2022-09-24T08:19:30.987Z,14.40
2022-09-24T08:21:58.349Z,14.45
2022-09-24T08:24:24.939Z,14.44
2022-09-24T08:26:51.459Z,14.36
2022-09-24T08:29:18.196Z,14.38
2022-09-24T08:31:44.778Z,14.33
2022-09-24T08:34:11.309Z,14.34
2022-09-24T08:36:42.613Z,14.41
2022-09-24T08:39:10.391Z,14.35
2022-09-24T08:41:49.856Z,14.32
2022-09-24T08:45:01.857Z,14.33
2022-09-24T08:47:44.588Z,14.35
2022-09-24T08:50:22.121Z,14.26
2022-09-24T08:53:03.329Z,14.36
2022-09-24T08:55:49.939Z,14.40
2022-09-24T08:58:46.004Z,14.37
2022-09-24T09:01:17.844Z,14.46
2022-09-24T09:04:05.122Z,14.47
2022-09-24T09:06:46.896Z,14.62
2022-09-24T09:09:19.873Z,14.82
2022-09-24T09:11:53.111Z,14.87
2022-09-24T09:14:39.581Z,14.93
2022-09-24T09:17:45.619Z,14.86
2022-09-24T09:20:33.913Z,14.96
2022-09-24T09:23:13.572Z,15.02
2022-09-24T09:25:44.916Z,14.90
2022-09-24T09:28:30.178Z,15.04
2022-09-24T09:30:57.001Z,15.17
2022-09-24T09:33:42.109Z,15.29
2022-09-24T09:36:34.662Z,15.10
2022-09-24T09:39:19.222Z,15.38
2022-09-24T09:41:58.063Z,15.72
2022-09-24T09:44:30.128Z,15.73
2022-09-24T09:47:24.713Z,15.89
2022-09-24T09:49:55.278Z,15.82
2022-09-24T09:52:26.187Z,15.92
2022-09-24T09:54:52.883Z,16.04
2022-09-24T09:57:23.002Z,15.71
2022-09-24T09:59:51.433Z,15.60
2022-09-24T10:02:27.499Z,15.53
2022-09-24T10:05:02.975Z,15.40
2022-09-24T10:07:31.607Z,15.27
2022-09-24T10:10:17.239Z,15.21
2022-09-24T10:12:43.775Z,15.15
2022-09-24T10:15:19.263Z,15.27
2022-09-24T10:17:49.434Z,15.37
2022-09-24T10:20:29.740Z,15.31
2022-09-24T10:23:03.222Z,15.61
2022-09-24T10:25:31.453Z,15.61
2022-09-24T10:28:25.314Z,15.48
2022-09-24T10:30:57.785Z,15.51
2022-09-24T10:33:25.071Z,15.87
2022-09-24T10:36:02.886Z,16.12
2022-09-24T10:38:29.501Z,16.15
2022-09-24T10:40:56.002Z,16.02
2022-09-24T10:43:22.762Z,16.17
2022-09-24T10:46:18.022Z,16.62
2022-09-24T10:48:50.951Z,17.01
2022-09-24T10:51:35.445Z,16.93
2022-09-24T10:54:26.855Z,16.91
2022-09-24T10:56:56.718Z,16.50
2022-09-24T10:59:51.330Z,16.36
2022-09-24T11:02:40.489Z,16.50
2022-09-24T11:05:18.989Z,16.44
2022-09-24T11:08:03.952Z,16.50
2022-09-24T11:10:51.651Z,16.34
2022-09-24T11:13:42.898Z,16.07
2022-09-24T11:16:44.018Z,15.99
2022-09-24T11:19:16.199Z,15.96
2022-09-24T11:21:57.959Z,15.85
2022-09-24T11:24:39.727Z,15.88
2022-09-24T11:27:37.106Z,15.95
2022-09-24T11:30:10.206Z,15.95
2022-09-24T11:32:45.679Z,16.05
2022-09-24T11:35:30.105Z,16.12
2022-09-24T11:38:09.970Z,16.21
2022-09-24T11:40:55.980Z,16.30
2022-09-24T11:43:52.815Z,16.28
2022-09-24T11:46:19.586Z,16.21
2022-09-24T11:48:52.054Z,16.07
2022-09-24T11:51:36.630Z,16.13
2022-09-24T11:54:13.346Z,16.10
2022-09-24T11:56:48.726Z,16.29
2022-09-24T11:59:53.414Z,16.22
2022-09-24T12:02:28.788Z,16.17
2022-09-24T12:05:16.611Z,16.21
2022-09-24T12:07:49.556Z,15.87
2022-09-24T12:10:34.596Z,15.96
2022-09-24T12:13:12.606Z,15.84
2022-09-24T12:16:03.066Z,15.69
2022-09-24T12:18:38.840Z,15.57
2022-09-24T12:21:15.851Z,15.68
2022-09-24T12:23:46.234Z,15.70
2022-09-24T12:26:17.218Z,15.68
2022-09-24T12:29:07.495Z,15.80
2022-09-24T12:32:13.523Z,15.80
2022-09-24T12:34:51.239Z,15.76
2022-09-24T12:37:22.888Z,15.89
2022-09-24T12:40:12.143Z,15.97
2022-09-24T12:42:59.738Z,15.94
2022-09-24T12:45:27.377Z,15.85
2022-09-24T12:47:59.892Z,15.71
2022-09-24T12:50:29.499Z,15.70
2022-09-24T12:52:56.445Z,15.72
2022-09-24T12:55:30.849Z,15.69
2022-09-24T12:58:25.850Z,15.73
2022-09-24T13:00:53.651Z,15.72
2022-09-24T13:03:33.545Z,15.75
2022-09-24T13:06:00.615Z,15.77
2022-09-24T13:08:37.267Z,15.77
2022-09-24T13:11:24.250Z,15.75
2022-09-24T13:14:00.144Z,15.81
2022-09-24T13:16:26.952Z,15.86
2022-09-24T13:18:56.654Z,15.78
2022-09-24T13:21:26.153Z,15.83
2022-09-24T13:23:53.367Z,15.86
2022-09-24T13:26:30.687Z,15.83
2022-09-24T13:29:01.643Z,15.92
2022-09-24T13:31:28.197Z,15.81
2022-09-24T13:34:09.750Z,15.75
2022-09-24T13:36:57.921Z,15.72
2022-09-24T13:39:37.275Z,15.79
2022-09-24T13:42:28.628Z,15.78
2022-09-24T13:45:05.107Z,15.75
2022-09-24T13:47:56.021Z,15.80
2022-09-24T13:50:33.921Z,15.88
2022-09-24T13:53:28.315Z,15.89
2022-09-24T13:55:59.004Z,16.06
2022-09-24T13:58:38.190Z,16.23
2022-09-24T14:01:14.775Z,16.25
2022-09-24T14:03:42.282Z,16.23
2022-09-24T14:06:16.986Z,16.35
2022-09-24T14:08:46.539Z,16.38
2022-09-24T14:11:19.665Z,16.27
2022-09-24T14:13:46.278Z,16.18
2022-09-24T14:16:21.353Z,16.20
2022-09-24T14:18:48.570Z,16.20
2022-09-24T14:21:31.831Z,16.11
2022-09-24T14:24:12.614Z,16.14
2022-09-24T14:26:39.143Z,16.24
2022-09-24T14:29:14.312Z,16.11
2022-09-24T14:31:47.206Z,16.12
2022-09-24T14:34:26.139Z,16.13
2022-09-24T14:36:59.616Z,16.12
2022-09-24T14:39:29.298Z,16.15
2022-09-24T14:41:57.593Z,16.19
2022-09-24T14:44:30.116Z,16.22
2022-09-24T14:46:58.964Z,16.26
2022-09-24T14:49:43.190Z,16.28
2022-09-24T14:52:34.074Z,16.43
2022-09-24T14:55:22.125Z,16.55
2022-09-24T14:57:55.314Z,16.50
2022-09-24T15:00:27.485Z,16.65
2022-09-24T15:03:01.463Z,16.80
2022-09-24T15:05:29.803Z,16.88
2022-09-24T15:08:29.967Z,16.98
2022-09-24T15:10:59.421Z,16.96
2022-09-24T15:13:30.271Z,16.87
2022-09-24T15:16:04.050Z,16.86
2022-09-24T15:18:30.648Z,16.88
2022-09-24T15:20:58.643Z,16.93
2022-09-24T15:23:25.362Z,16.91
2022-09-24T15:25:51.900Z,17.07
2022-09-24T15:28:18.450Z,17.06
2022-09-24T15:30:45.086Z,17.26
2022-09-24T15:33:12.815Z,17.31
2022-09-24T15:35:44.115Z,17.40
2022-09-24T15:38:16.094Z,17.35
2022-09-24T15:40:44.032Z,17.15
2022-09-24T15:43:17.734Z,16.88
2022-09-24T15:45:44.337Z,16.78
2022-09-24T15:48:10.806Z,16.70
2022-09-24T15:50:39.859Z,16.65
2022-09-24T15:53:07.588Z,16.50
2022-09-24T15:55:36.376Z,16.43
2022-09-24T15:58:02.971Z,16.47
2022-09-24T16:00:29.670Z,16.42
2022-09-24T16:02:57.989Z,16.51
2022-09-24T16:05:25.183Z,16.53
2022-09-24T16:07:51.737Z,16.33
2022-09-24T16:10:18.439Z,16.18
2022-09-24T16:12:45.030Z,15.87
2022-09-24T16:15:13.406Z,15.66
2022-09-24T16:17:39.965Z,15.52
2022-09-24T16:20:07.346Z,15.49
2022-09-24T16:22:33.880Z,15.46
2022-09-24T16:25:00.331Z,15.50
2022-09-24T16:27:26.868Z,15.54
2022-09-24T16:29:53.307Z,15.59
2022-09-24T16:32:19.900Z,15.65
2022-09-24T16:34:46.416Z,15.65
2022-09-24T16:37:14.585Z,15.55
2022-09-24T16:39:41.047Z,15.58
2022-09-24T16:42:07.863Z,15.55
2022-09-24T16:44:34.425Z,15.44
2022-09-24T16:47:00.952Z,15.36
2022-09-24T16:49:27.833Z,15.23
2022-09-24T16:51:54.378Z,15.13
2022-09-24T16:54:22.683Z,15.05
2022-09-24T16:56:50.418Z,14.93
2022-09-24T16:59:16.993Z,14.83
2022-09-24T17:01:43.672Z,14.69
2022-09-24T17:04:10.878Z,14.54
2022-09-24T17:06:37.835Z,14.38
2022-09-24T17:09:23.524Z,14.20
2022-09-24T17:11:50.154Z,14.10
2022-09-24T17:14:17.795Z,14.03
2022-09-24T17:16:44.483Z,13.96
2022-09-24T17:19:12.337Z,13.79
2022-09-24T17:21:41.148Z,13.62
2022-09-24T17:24:08.595Z,13.44
2022-09-24T17:26:35.829Z,13.28
2022-09-24T17:29:02.489Z,13.12
2022-09-24T17:31:29.078Z,12.96
2022-09-24T17:34:01.151Z,12.80
2022-09-24T17:36:29.560Z,12.69
2022-09-24T17:38:57.508Z,12.53
2022-09-24T17:41:24.377Z,12.39
2022-09-24T17:43:51.987Z,12.26
2022-09-24T17:46:22.283Z,12.13
2022-09-24T17:48:52.132Z,12.01
2022-09-24T17:51:20.383Z,11.87
2022-09-24T17:53:47.223Z,11.76
2022-09-24T17:56:14.775Z,11.61
2022-09-24T17:58:44.367Z,11.52
2022-09-24T18:01:13.921Z,11.44
2022-09-24T18:03:40.821Z,11.34
2022-09-24T18:06:10.971Z,11.23
2022-09-24T18:08:39.348Z,11.19
2022-09-24T18:11:09.476Z,11.13
2022-09-24T18:13:36.695Z,11.08
2022-09-24T18:16:11.328Z,11.07
2022-09-24T18:18:38.411Z,11.03
2022-09-24T18:21:07.562Z,10.94
2022-09-24T18:23:37.334Z,10.94
2022-09-24T18:26:16.038Z,10.91
2022-09-24T18:28:54.757Z,10.90
2022-09-24T18:31:23.962Z,10.87
2022-09-24T18:33:52.967Z,10.89
2022-09-24T18:36:21.724Z,10.95
2022-09-24T18:38:48.699Z,10.87
2022-09-24T18:41:23.883Z,11.00
2022-09-24T18:43:51.691Z,10.99
2022-09-24T18:46:19.982Z,10.97
2022-09-24T18:48:49.292Z,10.90
2022-09-24T18:51:21.757Z,10.82
2022-09-24T18:53:56.631Z,10.82
2022-09-24T18:56:24.396Z,10.83
2022-09-24T18:58:58.266Z,10.90
2022-09-24T19:01:26.111Z,10.95
2022-09-24T19:03:53.460Z,10.99
2022-09-24T19:06:20.336Z,10.98
2022-09-24T19:08:46.906Z,11.03
2022-09-24T19:11:14.321Z,11.08
2022-09-24T19:13:42.643Z,11.09
2022-09-24T19:16:14.031Z,11.07
2022-09-24T19:18:41.541Z,11.22
2022-09-24T19:21:13.021Z,11.21
2022-09-24T19:23:45.291Z,11.23
2022-09-24T19:26:13.894Z,11.24
2022-09-24T19:28:41.742Z,11.17
2022-09-24T19:31:18.976Z,11.20
2022-09-24T19:33:46.334Z,11.18
2022-09-24T19:36:13.339Z,11.09
2022-09-24T19:38:41.624Z,11.17
2022-09-24T19:41:13.508Z,11.16
2022-09-24T19:43:42.823Z,11.09
2022-09-24T19:46:12.844Z,11.11
2022-09-24T19:48:41.374Z,11.06
2022-09-24T19:51:11.636Z,11.04
2022-09-24T19:53:38.133Z,11.01
2022-09-24T19:56:10.674Z,10.90
2022-09-24T19:58:37.524Z,10.84
2022-09-24T20:01:06.619Z,10.76
2022-09-24T20:03:37.501Z,10.73
2022-09-24T20:06:22.737Z,10.62
2022-09-24T20:08:49.849Z,10.50
2022-09-24T20:11:21.176Z,10.40
2022-09-24T20:13:48.529Z,10.32
2022-09-24T20:16:19.686Z,10.29
2022-09-24T20:18:47.785Z,10.23
2022-09-24T20:21:17.191Z,10.12
2022-09-24T20:23:45.422Z,10.02
2022-09-24T20:26:31.807Z,9.91
2022-09-24T20:28:59.241Z,9.89
2022-09-24T20:31:26.683Z,9.81
2022-09-24T20:33:53.302Z,9.73
2022-09-24T20:36:24.449Z,9.69
2022-09-24T20:38:51.874Z,9.62
2022-09-24T20:41:23.295Z,9.60
2022-09-24T20:43:51.118Z,9.59
2022-09-24T20:46:21.880Z,9.55
2022-09-24T20:48:48.614Z,9.49
2022-09-24T20:51:18.112Z,9.44
2022-09-24T20:53:45.939Z,9.44
2022-09-24T20:56:12.729Z,9.42
2022-09-24T20:58:40.122Z,9.39
2022-09-24T21:01:07.797Z,9.37
2022-09-24T21:03:44.875Z,9.33
2022-09-24T21:06:12.667Z,9.34
2022-09-24T21:08:40.988Z,9.42
2022-09-24T21:11:14.094Z,9.43
2022-09-24T21:13:42.675Z,9.42
2022-09-24T21:16:10.085Z,9.43
2022-09-24T21:18:45.155Z,9.47
2022-09-24T21:21:16.856Z,9.45
2022-09-24T21:23:48.410Z,9.47
2022-09-24T21:26:20.370Z,9.49
2022-09-24T21:28:49.535Z,9.46
2022-09-24T21:31:19.017Z,9.45
2022-09-24T21:33:48.057Z,9.48
2022-09-24T21:36:19.412Z,9.54
2022-09-24T21:38:56.737Z,9.56
2022-09-24T21:41:26.186Z,9.50
2022-09-24T21:43:55.888Z,9.42
2022-09-24T21:46:23.631Z,9.38
2022-09-24T21:48:51.344Z,9.32
2022-09-24T21:51:22.018Z,9.26
2022-09-24T21:53:52.551Z,9.21
2022-09-24T21:56:20.842Z,9.19
2022-09-24T21:58:51.423Z,9.14
2022-09-24T22:01:20.757Z,9.16
2022-09-24T22:03:47.285Z,9.19
2022-09-24T22:06:14.907Z,9.17
2022-09-24T22:08:41.682Z,9.25
2022-09-24T22:11:09.784Z,9.18
2022-09-24T22:13:39.358Z,9.20
2022-09-24T22:16:08.830Z,9.21
2022-09-24T22:18:36.874Z,9.23
2022-09-24T22:21:11.252Z,9.21
2022-09-24T22:23:38.494Z,9.21
2022-09-24T22:26:06.542Z,9.28
2022-09-24T22:28:33.388Z,9.29
2022-09-24T22:31:04.096Z,9.29
2022-09-24T22:33:49.473Z,9.23
2022-09-24T22:36:16.079Z,9.17
2022-09-24T22:38:42.608Z,9.13
2022-09-24T22:41:11.121Z,9.05
2022-09-24T22:43:39.305Z,9.00
2022-09-24T22:46:08.677Z,8.97
2022-09-24T22:48:36.134Z,8.91
2022-09-24T22:51:04.214Z,8.82
2022-09-24T22:53:34.695Z,8.77
2022-09-24T22:56:05.579Z,8.73
2022-09-24T22:58:33.639Z,8.74
2022-09-24T23:01:31.367Z,8.73
2022-09-24T23:04:00.636Z,8.74
2022-09-24T23:06:27.865Z,8.72
2022-09-24T23:08:55.334Z,8.63
2022-09-24T23:11:25.209Z,8.67
2022-09-24T23:13:57.223Z,8.71
2022-09-24T23:16:27.464Z,8.74
2022-09-24T23:18:57.035Z,8.79
2022-09-24T23:21:25.845Z,8.91
2022-09-24T23:24:06.434Z,8.96
2022-09-24T23:26:33.655Z,9.01
2022-09-24T23:29:01.891Z,9.06
2022-09-24T23:31:31.378Z,9.15
2022-09-24T23:34:00.105Z,9.23
2022-09-24T23:36:28.654Z,9.32
2022-09-24T23:38:55.263Z,9.42
2022-09-24T23:41:21.921Z,9.53
2022-09-24T23:43:48.934Z,9.62
2022-09-24T23:46:18.189Z,9.74
2022-09-24T23:48:45.022Z,9.83
2022-09-24T23:51:12.229Z,9.91
2022-09-24T23:53:39.401Z,9.98
2022-09-24T23:56:07.528Z,10.02
2022-09-24T23:58:35.168Z,10.01
